sensor_id;sensor_type;location;lat;lon;timestamp;temperature;humidity
23540;DHT22;11947;50.810;4.394;2022-12-18T00:01:16;-2.30;99.90
23540;DHT22;11947;50.810;4.394;2022-12-18T00:03:42;-2.30;99.90
23540;DHT22;11947;50.810;4.394;2022-12-18T00:06:08;-2.20;99.90
23540;DHT22;11947;50.810;4.394;2022-12-18T00:08:34;-2.50;99.90
23540;DHT22;11947;50.810;4.394;2022-12-18T00:11:08;-2.50;99.90
23540;DHT22;11947;50.810;4.394;2022-12-18T00:13:34;-2.60;99.90
23540;DHT22;11947;50.810;4.394;2022-12-18T00:16:05;-2.80;99.90
23540;DHT22;11947;50.810;4.394;2022-12-18T00:18:32;-2.70;99.90
23540;DHT22;11947;50.810;4.394;2022-12-18T00:21:03;-2.70;99.90
23540;DHT22;11947;50.810;4.394;2022-12-18T00:23:35;-2.70;99.90
23540;DHT22;11947;50.810;4.394;2022-12-18T00:26:03;-2.70;99.90
23540;DHT22;11947;50.810;4.394;2022-12-18T00:28:29;-2.80;99.90
23540;DHT22;11947;50.810;4.394;2022-12-18T00:31:02;-2.80;99.90
23540;DHT22;11947;50.810;4.394;2022-12-18T00:33:29;-2.90;99.90
23540;DHT22;11947;50.810;4.394;2022-12-18T00:36:03;-3.00;99.90
23540;DHT22;11947;50.810;4.394;2022-12-18T00:38:29;-3.10;99.90
23540;DHT22;11947;50.810;4.394;2022-12-18T00:40:55;-3.20;99.90
23540;DHT22;11947;50.810;4.394;2022-12-18T00:43:21;-3.20;99.90
23540;DHT22;11947;50.810;4.394;2022-12-18T00:45:47;-3.20;99.90
23540;DHT22;11947;50.810;4.394;2022-12-18T00:48:18;-3.30;99.90
23540;DHT22;11947;50.810;4.394;2022-12-18T00:50:44;-3.20;99.90
23540;DHT22;11947;50.810;4.394;2022-12-18T00:53:09;-3.40;99.90
23540;DHT22;11947;50.810;4.394;2022-12-18T00:55:36;-3.30;99.90
23540;DHT22;11947;50.810;4.394;2022-12-18T00:58:02;-3.20;99.90
23540;DHT22;11947;50.810;4.394;2022-12-18T01:00:28;-3.30;99.90
23540;DHT22;11947;50.810;4.394;2022-12-18T01:02:54;-3.10;99.90
23540;DHT22;11947;50.810;4.394;2022-12-18T01:05:19;-3.10;99.90
23540;DHT22;11947;50.810;4.394;2022-12-18T01:07:48;-3.00;99.90
23540;DHT22;11947;50.810;4.394;2022-12-18T01:10:15;-3.00;99.90
23540;DHT22;11947;50.810;4.394;2022-12-18T01:12:41;-3.10;99.90
23540;DHT22;11947;50.810;4.394;2022-12-18T01:15:07;-2.90;99.90
23540;DHT22;11947;50.810;4.394;2022-12-18T01:17:36;-3.00;99.90
23540;DHT22;11947;50.810;4.394;2022-12-18T01:20:02;-3.00;99.90
23540;DHT22;11947;50.810;4.394;2022-12-18T01:22:27;-3.00;99.90
23540;DHT22;11947;50.810;4.394;2022-12-18T01:24:53;-3.00;99.90
23540;DHT22;11947;50.810;4.394;2022-12-18T01:27:19;-3.00;99.90
23540;DHT22;11947;50.810;4.394;2022-12-18T01:29:44;-3.10;99.90
23540;DHT22;11947;50.810;4.394;2022-12-18T01:32:10;-3.10;99.90
23540;DHT22;11947;50.810;4.394;2022-12-18T01:34:36;-3.20;99.90
23540;DHT22;11947;50.810;4.394;2022-12-18T01:37:05;-3.20;99.90
23540;DHT22;11947;50.810;4.394;2022-12-18T01:39:32;-3.00;99.90
23540;DHT22;11947;50.810;4.394;2022-12-18T01:41:59;-2.80;99.90
23540;DHT22;11947;50.810;4.394;2022-12-18T01:47:39;-2.70;99.90
23540;DHT22;11947;50.810;4.394;2022-12-18T01:53:06;-2.90;99.90
23540;DHT22;11947;50.810;4.394;2022-12-18T01:55:35;-2.90;99.90
23540;DHT22;11947;50.810;4.394;2022-12-18T01:58:04;-2.80;99.90
23540;DHT22;11947;50.810;4.394;2022-12-18T02:00:30;-2.70;99.90
23540;DHT22;11947;50.810;4.394;2022-12-18T02:02:56;-2.80;99.90
23540;DHT22;11947;50.810;4.394;2022-12-18T02:08:42;-2.90;99.90
23540;DHT22;11947;50.810;4.394;2022-12-18T02:19:20;-3.10;99.90
23540;DHT22;11947;50.810;4.394;2022-12-18T02:30:09;-3.20;99.90
23540;DHT22;11947;50.810;4.394;2022-12-18T02:32:41;-3.20;99.90
23540;DHT22;11947;50.810;4.394;2022-12-18T02:35:15;-3.40;99.90
23540;DHT22;11947;50.810;4.394;2022-12-18T02:37:44;-3.40;99.90
23540;DHT22;11947;50.810;4.394;2022-12-18T02:40:11;-3.40;99.90
23540;DHT22;11947;50.810;4.394;2022-12-18T02:42:38;-3.30;99.90
23540;DHT22;11947;50.810;4.394;2022-12-18T02:45:04;-3.40;99.90
23540;DHT22;11947;50.810;4.394;2022-12-18T02:47:33;-3.50;99.90
23540;DHT22;11947;50.810;4.394;2022-12-18T02:50:22;-3.50;99.90
23540;DHT22;11947;50.810;4.394;2022-12-18T02:58:20;-3.70;99.90
23540;DHT22;11947;50.810;4.394;2022-12-18T03:00:58;-3.60;99.90
23540;DHT22;11947;50.810;4.394;2022-12-18T03:03:29;-3.70;99.90
23540;DHT22;11947;50.810;4.394;2022-12-18T03:06:12;-3.90;99.90
23540;DHT22;11947;50.810;4.394;2022-12-18T03:08:45;-3.80;99.90
23540;DHT22;11947;50.810;4.394;2022-12-18T03:11:13;-4.00;99.90
23540;DHT22;11947;50.810;4.394;2022-12-18T03:13:46;-4.10;99.90
23540;DHT22;11947;50.810;4.394;2022-12-18T03:16:23;-4.00;99.90
23540;DHT22;11947;50.810;4.394;2022-12-18T03:19:06;-3.90;99.90
23540;DHT22;11947;50.810;4.394;2022-12-18T03:21:45;-3.90;99.90
23540;DHT22;11947;50.810;4.394;2022-12-18T03:24:12;-3.90;99.90
23540;DHT22;11947;50.810;4.394;2022-12-18T03:26:42;-4.00;99.90
23540;DHT22;11947;50.810;4.394;2022-12-18T03:34:34;-4.10;99.90
23540;DHT22;11947;50.810;4.394;2022-12-18T03:37:01;-4.20;99.90
23540;DHT22;11947;50.810;4.394;2022-12-18T03:39:30;-4.20;99.90
23540;DHT22;11947;50.810;4.394;2022-12-18T03:42:12;-4.00;99.90
23540;DHT22;11947;50.810;4.394;2022-12-18T03:47:45;-4.20;99.90
23540;DHT22;11947;50.810;4.394;2022-12-18T03:50:22;-4.10;99.90
23540;DHT22;11947;50.810;4.394;2022-12-18T03:53:13;-4.10;99.90
23540;DHT22;11947;50.810;4.394;2022-12-18T03:55:41;-4.20;99.90
23540;DHT22;11947;50.810;4.394;2022-12-18T03:58:10;-4.20;99.90
23540;DHT22;11947;50.810;4.394;2022-12-18T04:00:42;-4.30;99.90
23540;DHT22;11947;50.810;4.394;2022-12-18T04:03:13;-4.40;99.90
23540;DHT22;11947;50.810;4.394;2022-12-18T04:05:41;-4.30;99.90
23540;DHT22;11947;50.810;4.394;2022-12-18T04:08:07;-4.40;99.90
23540;DHT22;11947;50.810;4.394;2022-12-18T04:10:33;-4.40;99.90
23540;DHT22;11947;50.810;4.394;2022-12-18T04:13:04;-4.40;99.90
23540;DHT22;11947;50.810;4.394;2022-12-18T04:15:33;-4.40;99.90
23540;DHT22;11947;50.810;4.394;2022-12-18T04:18:03;-4.20;99.90
23540;DHT22;11947;50.810;4.394;2022-12-18T04:20:29;-4.40;99.90
23540;DHT22;11947;50.810;4.394;2022-12-18T04:22:55;-4.30;99.90
23540;DHT22;11947;50.810;4.394;2022-12-18T04:25:21;-4.30;99.90
23540;DHT22;11947;50.810;4.394;2022-12-18T04:27:47;-4.20;99.90
23540;DHT22;11947;50.810;4.394;2022-12-18T04:30:12;-4.10;99.90
23540;DHT22;11947;50.810;4.394;2022-12-18T04:35:13;-4.40;99.90
23540;DHT22;11947;50.810;4.394;2022-12-18T04:37:39;-4.50;99.90
23540;DHT22;11947;50.810;4.394;2022-12-18T04:40:05;-4.40;99.90
23540;DHT22;11947;50.810;4.394;2022-12-18T04:45:09;-4.40;99.90
23540;DHT22;11947;50.810;4.394;2022-12-18T04:47:34;-4.30;99.90
23540;DHT22;11947;50.810;4.394;2022-12-18T04:50:04;-4.30;99.90
23540;DHT22;11947;50.810;4.394;2022-12-18T04:52:29;-4.30;99.90
23540;DHT22;11947;50.810;4.394;2022-12-18T04:54:55;-4.20;99.90
23540;DHT22;11947;50.810;4.394;2022-12-18T04:57:23;-4.20;99.90
23540;DHT22;11947;50.810;4.394;2022-12-18T04:59:49;-4.20;99.90
23540;DHT22;11947;50.810;4.394;2022-12-18T05:02:15;-4.30;99.90
23540;DHT22;11947;50.810;4.394;2022-12-18T05:07:52;-4.40;99.90
23540;DHT22;11947;50.810;4.394;2022-12-18T05:10:21;-4.30;99.90
23540;DHT22;11947;50.810;4.394;2022-12-18T05:12:47;-4.30;99.90
23540;DHT22;11947;50.810;4.394;2022-12-18T05:15:32;-4.20;99.90
23540;DHT22;11947;50.810;4.394;2022-12-18T05:18:00;-4.30;99.90
23540;DHT22;11947;50.810;4.394;2022-12-18T05:20:27;-4.30;99.90
23540;DHT22;11947;50.810;4.394;2022-12-18T05:22:55;-4.30;99.90
23540;DHT22;11947;50.810;4.394;2022-12-18T05:25:22;-4.50;99.90
23540;DHT22;11947;50.810;4.394;2022-12-18T05:27:50;-4.40;99.90
23540;DHT22;11947;50.810;4.394;2022-12-18T05:30:16;-4.50;99.90
23540;DHT22;11947;50.810;4.394;2022-12-18T05:32:42;-4.30;99.90
23540;DHT22;11947;50.810;4.394;2022-12-18T05:35:11;-4.30;99.90
23540;DHT22;11947;50.810;4.394;2022-12-18T05:37:37;-4.30;99.90
23540;DHT22;11947;50.810;4.394;2022-12-18T05:40:06;-4.20;99.90
23540;DHT22;11947;50.810;4.394;2022-12-18T05:42:32;-4.20;99.90
23540;DHT22;11947;50.810;4.394;2022-12-18T05:44:58;-4.40;99.90
23540;DHT22;11947;50.810;4.394;2022-12-18T05:47:23;-4.40;99.90
23540;DHT22;11947;50.810;4.394;2022-12-18T05:49:49;-4.40;99.90
23540;DHT22;11947;50.810;4.394;2022-12-18T05:52:17;-4.40;99.90
23540;DHT22;11947;50.810;4.394;2022-12-18T05:59:54;-4.60;99.90
23540;DHT22;11947;50.810;4.394;2022-12-18T06:02:19;-4.50;99.90
23540;DHT22;11947;50.810;4.394;2022-12-18T06:05:18;-4.50;99.90
23540;DHT22;11947;50.810;4.394;2022-12-18T06:07:49;-4.60;99.90
23540;DHT22;11947;50.810;4.394;2022-12-18T06:10:16;-4.40;99.90
23540;DHT22;11947;50.810;4.394;2022-12-18T06:12:42;-4.40;99.90
23540;DHT22;11947;50.810;4.394;2022-12-18T06:15:10;-4.30;99.90
23540;DHT22;11947;50.810;4.394;2022-12-18T06:17:36;-4.30;99.90
23540;DHT22;11947;50.810;4.394;2022-12-18T06:20:03;-4.30;99.90
23540;DHT22;11947;50.810;4.394;2022-12-18T06:22:31;-4.20;99.90
23540;DHT22;11947;50.810;4.394;2022-12-18T06:24:57;-4.30;99.90
23540;DHT22;11947;50.810;4.394;2022-12-18T06:27:22;-4.30;99.90
23540;DHT22;11947;50.810;4.394;2022-12-18T06:29:48;-4.20;99.90
23540;DHT22;11947;50.810;4.394;2022-12-18T06:32:14;-4.20;99.90
23540;DHT22;11947;50.810;4.394;2022-12-18T06:37:30;-4.20;99.90
23540;DHT22;11947;50.810;4.394;2022-12-18T06:39:58;-4.10;99.90
23540;DHT22;11947;50.810;4.394;2022-12-18T06:42:26;-4.20;99.90
23540;DHT22;11947;50.810;4.394;2022-12-18T06:44:52;-4.10;99.90
23540;DHT22;11947;50.810;4.394;2022-12-18T06:47:18;-4.10;99.90
23540;DHT22;11947;50.810;4.394;2022-12-18T06:49:44;-4.00;99.90
23540;DHT22;11947;50.810;4.394;2022-12-18T06:52:09;-4.10;99.90
23540;DHT22;11947;50.810;4.394;2022-12-18T06:54:35;-3.90;99.90
23540;DHT22;11947;50.810;4.394;2022-12-18T06:57:01;-4.00;99.90
23540;DHT22;11947;50.810;4.394;2022-12-18T06:59:26;-3.90;99.90
23540;DHT22;11947;50.810;4.394;2022-12-18T07:01:52;-4.00;99.90
23540;DHT22;11947;50.810;4.394;2022-12-18T07:04:17;-4.00;99.90
23540;DHT22;11947;50.810;4.394;2022-12-18T07:06:43;-3.80;99.90
23540;DHT22;11947;50.810;4.394;2022-12-18T07:09:12;-3.70;99.90
23540;DHT22;11947;50.810;4.394;2022-12-18T07:11:37;-3.80;99.90
23540;DHT22;11947;50.810;4.394;2022-12-18T07:14:03;-3.80;99.90
23540;DHT22;11947;50.810;4.394;2022-12-18T07:16:28;-3.70;99.90
23540;DHT22;11947;50.810;4.394;2022-12-18T07:18:55;-3.70;99.90
23540;DHT22;11947;50.810;4.394;2022-12-18T07:21:22;-3.80;99.90
23540;DHT22;11947;50.810;4.394;2022-12-18T07:23:50;-3.80;99.90
23540;DHT22;11947;50.810;4.394;2022-12-18T07:28:56;-3.70;99.90
23540;DHT22;11947;50.810;4.394;2022-12-18T07:34:01;-3.90;99.90
23540;DHT22;11947;50.810;4.394;2022-12-18T07:36:32;-3.60;99.90
23540;DHT22;11947;50.810;4.394;2022-12-18T07:39:01;-3.60;99.90
23540;DHT22;11947;50.810;4.394;2022-12-18T07:41:28;-3.70;99.90
23540;DHT22;11947;50.810;4.394;2022-12-18T07:43:53;-3.70;99.90
23540;DHT22;11947;50.810;4.394;2022-12-18T07:46:22;-3.70;99.90
23540;DHT22;11947;50.810;4.394;2022-12-18T07:48:47;-3.80;99.90
23540;DHT22;11947;50.810;4.394;2022-12-18T07:51:13;-3.70;99.90
23540;DHT22;11947;50.810;4.394;2022-12-18T07:53:42;-3.70;99.90
23540;DHT22;11947;50.810;4.394;2022-12-18T07:56:09;-3.50;99.90
23540;DHT22;11947;50.810;4.394;2022-12-18T07:58:36;-3.50;99.90
23540;DHT22;11947;50.810;4.394;2022-12-18T08:01:07;-3.60;99.90
23540;DHT22;11947;50.810;4.394;2022-12-18T08:03:33;-3.60;99.90
23540;DHT22;11947;50.810;4.394;2022-12-18T08:06:06;-3.70;99.90
23540;DHT22;11947;50.810;4.394;2022-12-18T08:08:36;-3.80;99.90
23540;DHT22;11947;50.810;4.394;2022-12-18T08:11:02;-3.80;99.90
23540;DHT22;11947;50.810;4.394;2022-12-18T08:13:31;-3.60;99.90
23540;DHT22;11947;50.810;4.394;2022-12-18T08:15:59;-3.50;99.90
23540;DHT22;11947;50.810;4.394;2022-12-18T08:18:25;-3.50;99.90
23540;DHT22;11947;50.810;4.394;2022-12-18T08:20:51;-3.40;99.90
23540;DHT22;11947;50.810;4.394;2022-12-18T08:23:16;-3.30;99.90
23540;DHT22;11947;50.810;4.394;2022-12-18T08:25:42;-3.30;99.90
23540;DHT22;11947;50.810;4.394;2022-12-18T08:28:08;-3.30;99.90
23540;DHT22;11947;50.810;4.394;2022-12-18T08:30:34;-3.10;99.90
23540;DHT22;11947;50.810;4.394;2022-12-18T08:33:00;-3.00;99.90
23540;DHT22;11947;50.810;4.394;2022-12-18T08:35:26;-2.80;99.90
23540;DHT22;11947;50.810;4.394;2022-12-18T08:37:52;-2.80;99.90
23540;DHT22;11947;50.810;4.394;2022-12-18T08:40:17;-2.70;99.90
23540;DHT22;11947;50.810;4.394;2022-12-18T08:42:43;-2.70;99.90
23540;DHT22;11947;50.810;4.394;2022-12-18T08:45:27;-2.80;99.90
23540;DHT22;11947;50.810;4.394;2022-12-18T08:47:53;-2.70;99.90
23540;DHT22;11947;50.810;4.394;2022-12-18T08:50:20;-2.50;99.90
23540;DHT22;11947;50.810;4.394;2022-12-18T08:52:45;-2.40;99.90
23540;DHT22;11947;50.810;4.394;2022-12-18T08:55:11;-2.60;99.90
23540;DHT22;11947;50.810;4.394;2022-12-18T08:57:39;-2.60;99.90
23540;DHT22;11947;50.810;4.394;2022-12-18T09:00:28;-2.30;99.90
23540;DHT22;11947;50.810;4.394;2022-12-18T09:03:19;-2.30;99.90
23540;DHT22;11947;50.810;4.394;2022-12-18T09:05:50;-2.20;99.90
23540;DHT22;11947;50.810;4.394;2022-12-18T09:08:19;-2.10;99.90
23540;DHT22;11947;50.810;4.394;2022-12-18T09:10:45;-2.00;99.90
23540;DHT22;11947;50.810;4.394;2022-12-18T09:13:12;-2.10;99.90
23540;DHT22;11947;50.810;4.394;2022-12-18T09:15:46;-1.90;99.90
23540;DHT22;11947;50.810;4.394;2022-12-18T09:18:13;-1.90;99.90
23540;DHT22;11947;50.810;4.394;2022-12-18T09:20:39;-1.90;99.90
23540;DHT22;11947;50.810;4.394;2022-12-18T09:23:09;-1.70;99.90
23540;DHT22;11947;50.810;4.394;2022-12-18T09:25:41;-1.90;99.90
23540;DHT22;11947;50.810;4.394;2022-12-18T09:28:13;-1.90;99.90
23540;DHT22;11947;50.810;4.394;2022-12-18T09:30:41;-1.90;99.90
23540;DHT22;11947;50.810;4.394;2022-12-18T09:33:06;-1.90;99.90
23540;DHT22;11947;50.810;4.394;2022-12-18T09:35:35;-1.80;99.90
23540;DHT22;11947;50.810;4.394;2022-12-18T09:38:15;-1.70;99.90
23540;DHT22;11947;50.810;4.394;2022-12-18T09:40:53;-1.70;99.90
23540;DHT22;11947;50.810;4.394;2022-12-18T09:43:45;-1.60;99.90
23540;DHT22;11947;50.810;4.394;2022-12-18T09:46:23;-1.70;99.90
23540;DHT22;11947;50.810;4.394;2022-12-18T09:48:58;-1.60;99.90
23540;DHT22;11947;50.810;4.394;2022-12-18T09:51:33;-1.50;99.90
23540;DHT22;11947;50.810;4.394;2022-12-18T10:00:37;-1.30;99.90
23540;DHT22;11947;50.810;4.394;2022-12-18T10:03:10;-1.10;99.90
23540;DHT22;11947;50.810;4.394;2022-12-18T10:10:51;-0.90;99.90
23540;DHT22;11947;50.810;4.394;2022-12-18T10:13:40;-0.80;99.90
23540;DHT22;11947;50.810;4.394;2022-12-18T10:16:17;-0.90;99.90
23540;DHT22;11947;50.810;4.394;2022-12-18T10:18:51;-0.80;99.90
23540;DHT22;11947;50.810;4.394;2022-12-18T10:24:52;-0.80;99.90
23540;DHT22;11947;50.810;4.394;2022-12-18T10:27:26;-0.80;99.90
23540;DHT22;11947;50.810;4.394;2022-12-18T10:29:53;-0.70;99.90
23540;DHT22;11947;50.810;4.394;2022-12-18T10:32:26;-0.60;99.90
23540;DHT22;11947;50.810;4.394;2022-12-18T10:34:55;-0.60;99.90
23540;DHT22;11947;50.810;4.394;2022-12-18T10:37:31;-0.50;99.90
23540;DHT22;11947;50.810;4.394;2022-12-18T10:40:11;-0.40;99.90
23540;DHT22;11947;50.810;4.394;2022-12-18T10:42:37;-0.20;99.90
23540;DHT22;11947;50.810;4.394;2022-12-18T10:45:10;-0.10;99.90
23540;DHT22;11947;50.810;4.394;2022-12-18T10:47:44;0.00;99.90
23540;DHT22;11947;50.810;4.394;2022-12-18T10:52:55;0.20;99.90
23540;DHT22;11947;50.810;4.394;2022-12-18T10:55:21;0.40;99.90
23540;DHT22;11947;50.810;4.394;2022-12-18T10:57:47;0.60;99.90
23540;DHT22;11947;50.810;4.394;2022-12-18T11:00:25;0.80;99.90
23540;DHT22;11947;50.810;4.394;2022-12-18T11:02:53;0.60;99.90
23540;DHT22;11947;50.810;4.394;2022-12-18T11:05:32;0.70;99.90
23540;DHT22;11947;50.810;4.394;2022-12-18T11:07:59;0.80;99.90
23540;DHT22;11947;50.810;4.394;2022-12-18T11:10:37;0.90;99.90
23540;DHT22;11947;50.810;4.394;2022-12-18T11:13:21;1.00;99.90
23540;DHT22;11947;50.810;4.394;2022-12-18T11:15:48;1.20;99.90
23540;DHT22;11947;50.810;4.394;2022-12-18T11:18:27;1.20;99.90
23540;DHT22;11947;50.810;4.394;2022-12-18T11:20:55;1.20;99.90
23540;DHT22;11947;50.810;4.394;2022-12-18T11:23:23;1.40;99.90
23540;DHT22;11947;50.810;4.394;2022-12-18T11:25:57;1.50;99.90
23540;DHT22;11947;50.810;4.394;2022-12-18T11:36:46;1.50;99.90
23540;DHT22;11947;50.810;4.394;2022-12-18T11:39:24;1.60;99.90
23540;DHT22;11947;50.810;4.394;2022-12-18T11:41:59;1.40;99.90
23540;DHT22;11947;50.810;4.394;2022-12-18T11:47:56;1.40;99.90
23540;DHT22;11947;50.810;4.394;2022-12-18T11:50:32;1.40;99.90
23540;DHT22;11947;50.810;4.394;2022-12-18T11:52:59;1.50;99.90
23540;DHT22;11947;50.810;4.394;2022-12-18T12:01:50;1.70;99.90
23540;DHT22;11947;50.810;4.394;2022-12-18T12:04:45;1.80;99.90
23540;DHT22;11947;50.810;4.394;2022-12-18T12:10:05;1.60;99.90
23540;DHT22;11947;50.810;4.394;2022-12-18T12:12:55;1.50;99.90
23540;DHT22;11947;50.810;4.394;2022-12-18T12:29:16;2.10;99.90
23540;DHT22;11947;50.810;4.394;2022-12-18T12:35:06;2.20;99.90
23540;DHT22;11947;50.810;4.394;2022-12-18T12:40:15;2.10;99.90
23540;DHT22;11947;50.810;4.394;2022-12-18T12:42:47;2.10;99.90
23540;DHT22;11947;50.810;4.394;2022-12-18T12:51:25;2.60;99.90
23540;DHT22;11947;50.810;4.394;2022-12-18T12:53:52;2.30;99.90
23540;DHT22;11947;50.810;4.394;2022-12-18T12:56:32;2.10;99.90
23540;DHT22;11947;50.810;4.394;2022-12-18T12:59:13;2.00;99.90
23540;DHT22;11947;50.810;4.394;2022-12-18T13:02:02;2.00;99.90
23540;DHT22;11947;50.810;4.394;2022-12-18T13:13:01;2.00;99.90
23540;DHT22;11947;50.810;4.394;2022-12-18T13:18:23;2.10;99.90
23540;DHT22;11947;50.810;4.394;2022-12-18T13:25:50;2.30;99.90
23540;DHT22;11947;50.810;4.394;2022-12-18T13:28:20;2.20;99.90
23540;DHT22;11947;50.810;4.394;2022-12-18T13:30:52;2.10;99.90
23540;DHT22;11947;50.810;4.394;2022-12-18T13:41:35;2.10;99.90
23540;DHT22;11947;50.810;4.394;2022-12-18T13:46:45;2.00;99.90
23540;DHT22;11947;50.810;4.394;2022-12-18T13:49:19;2.40;99.90
23540;DHT22;11947;50.810;4.394;2022-12-18T13:51:51;2.30;99.90
23540;DHT22;11947;50.810;4.394;2022-12-18T13:54:33;2.20;99.90
23540;DHT22;11947;50.810;4.394;2022-12-18T13:56:59;2.30;99.90
23540;DHT22;11947;50.810;4.394;2022-12-18T13:59:36;2.30;99.90
23540;DHT22;11947;50.810;4.394;2022-12-18T14:02:17;2.30;99.90
23540;DHT22;11947;50.810;4.394;2022-12-18T14:04:47;2.20;99.90
23540;DHT22;11947;50.810;4.394;2022-12-18T14:07:21;2.00;99.90
23540;DHT22;11947;50.810;4.394;2022-12-18T14:09:55;1.90;99.90
23540;DHT22;11947;50.810;4.394;2022-12-18T14:12:25;1.70;99.90
23540;DHT22;11947;50.810;4.394;2022-12-18T14:15:31;1.60;99.90
23540;DHT22;11947;50.810;4.394;2022-12-18T14:20:45;1.80;99.90
23540;DHT22;11947;50.810;4.394;2022-12-18T14:23:39;1.80;99.90
23540;DHT22;11947;50.810;4.394;2022-12-18T14:26:25;1.90;99.90
23540;DHT22;11947;50.810;4.394;2022-12-18T14:28:53;1.80;99.90
23540;DHT22;11947;50.810;4.394;2022-12-18T14:31:26;1.90;99.90
23540;DHT22;11947;50.810;4.394;2022-12-18T14:33:55;2.00;99.90
23540;DHT22;11947;50.810;4.394;2022-12-18T14:36:28;1.90;99.90
23540;DHT22;11947;50.810;4.394;2022-12-18T14:38:55;1.90;99.90
23540;DHT22;11947;50.810;4.394;2022-12-18T14:41:22;2.10;99.90
23540;DHT22;11947;50.810;4.394;2022-12-18T14:43:50;2.00;99.90
23540;DHT22;11947;50.810;4.394;2022-12-18T14:46:36;1.90;99.90
23540;DHT22;11947;50.810;4.394;2022-12-18T14:49:35;1.70;99.90
23540;DHT22;11947;50.810;4.394;2022-12-18T14:52:22;1.70;99.90
23540;DHT22;11947;50.810;4.394;2022-12-18T14:54:50;1.80;99.90
23540;DHT22;11947;50.810;4.394;2022-12-18T14:57:25;1.70;99.90
23540;DHT22;11947;50.810;4.394;2022-12-18T15:00:05;1.70;99.90
23540;DHT22;11947;50.810;4.394;2022-12-18T15:02:31;1.60;99.90
23540;DHT22;11947;50.810;4.394;2022-12-18T15:05:14;1.50;99.90
23540;DHT22;11947;50.810;4.394;2022-12-18T15:07:45;1.50;99.90
23540;DHT22;11947;50.810;4.394;2022-12-18T15:10:29;1.50;99.90
23540;DHT22;11947;50.810;4.394;2022-12-18T15:17:59;1.50;99.90
23540;DHT22;11947;50.810;4.394;2022-12-18T15:20:31;1.50;99.90
23540;DHT22;11947;50.810;4.394;2022-12-18T15:22:58;1.40;99.90
23540;DHT22;11947;50.810;4.394;2022-12-18T15:25:36;1.50;99.90
23540;DHT22;11947;50.810;4.394;2022-12-18T15:28:04;1.40;99.90
23540;DHT22;11947;50.810;4.394;2022-12-18T15:30:59;1.30;99.90
23540;DHT22;11947;50.810;4.394;2022-12-18T15:33:29;1.30;99.90
23540;DHT22;11947;50.810;4.394;2022-12-18T15:36:04;1.30;99.90
23540;DHT22;11947;50.810;4.394;2022-12-18T15:38:32;1.20;99.90
23540;DHT22;11947;50.810;4.394;2022-12-18T15:41:01;1.20;99.90
23540;DHT22;11947;50.810;4.394;2022-12-18T15:43:27;1.30;99.90
23540;DHT22;11947;50.810;4.394;2022-12-18T15:46:06;1.20;99.90
23540;DHT22;11947;50.810;4.394;2022-12-18T15:48:34;1.20;99.90
23540;DHT22;11947;50.810;4.394;2022-12-18T15:51:00;1.00;99.90
23540;DHT22;11947;50.810;4.394;2022-12-18T15:53:30;1.10;99.90
23540;DHT22;11947;50.810;4.394;2022-12-18T15:55:57;1.10;99.90
23540;DHT22;11947;50.810;4.394;2022-12-18T15:58:41;1.20;99.90
23540;DHT22;11947;50.810;4.394;2022-12-18T16:01:09;1.30;99.90
23540;DHT22;11947;50.810;4.394;2022-12-18T16:04:00;1.40;99.90
23540;DHT22;11947;50.810;4.394;2022-12-18T16:06:26;1.40;99.90
23540;DHT22;11947;50.810;4.394;2022-12-18T16:08:51;1.40;99.90
23540;DHT22;11947;50.810;4.394;2022-12-18T16:11:26;1.50;99.90
23540;DHT22;11947;50.810;4.394;2022-12-18T16:16:48;1.70;99.90
23540;DHT22;11947;50.810;4.394;2022-12-18T16:19:15;1.60;99.90
23540;DHT22;11947;50.810;4.394;2022-12-18T16:21:41;1.60;99.90
23540;DHT22;11947;50.810;4.394;2022-12-18T16:24:15;1.60;99.90
23540;DHT22;11947;50.810;4.394;2022-12-18T16:26:41;1.60;99.90
23540;DHT22;11947;50.810;4.394;2022-12-18T16:29:08;1.60;99.90
23540;DHT22;11947;50.810;4.394;2022-12-18T16:31:34;1.50;99.90
23540;DHT22;11947;50.810;4.394;2022-12-18T16:36:41;1.70;99.90
23540;DHT22;11947;50.810;4.394;2022-12-18T16:39:06;1.60;99.90
23540;DHT22;11947;50.810;4.394;2022-12-18T16:41:32;1.60;99.90
23540;DHT22;11947;50.810;4.394;2022-12-18T16:43:59;1.60;99.90
23540;DHT22;11947;50.810;4.394;2022-12-18T16:46:25;1.50;99.90
23540;DHT22;11947;50.810;4.394;2022-12-18T16:48:50;1.50;99.90
23540;DHT22;11947;50.810;4.394;2022-12-18T16:51:16;1.50;99.90
23540;DHT22;11947;50.810;4.394;2022-12-18T16:53:42;1.50;99.90
23540;DHT22;11947;50.810;4.394;2022-12-18T16:56:07;1.60;99.90
23540;DHT22;11947;50.810;4.394;2022-12-18T16:58:33;1.70;99.90
23540;DHT22;11947;50.810;4.394;2022-12-18T17:00:59;1.70;99.90
23540;DHT22;11947;50.810;4.394;2022-12-18T17:03:25;1.80;99.90
23540;DHT22;11947;50.810;4.394;2022-12-18T17:05:51;1.90;99.90
23540;DHT22;11947;50.810;4.394;2022-12-18T17:08:17;1.90;99.90
23540;DHT22;11947;50.810;4.394;2022-12-18T17:10:42;1.80;99.90
23540;DHT22;11947;50.810;4.394;2022-12-18T17:13:12;1.70;99.90
23540;DHT22;11947;50.810;4.394;2022-12-18T17:15:37;1.80;99.90
23540;DHT22;11947;50.810;4.394;2022-12-18T17:18:06;1.90;99.90
23540;DHT22;11947;50.810;4.394;2022-12-18T17:20:32;1.80;99.90
23540;DHT22;11947;50.810;4.394;2022-12-18T17:22:58;1.90;99.90
23540;DHT22;11947;50.810;4.394;2022-12-18T17:25:26;1.80;99.90
23540;DHT22;11947;50.810;4.394;2022-12-18T17:27:59;1.70;99.90
23540;DHT22;11947;50.810;4.394;2022-12-18T17:30:31;1.70;99.90
23540;DHT22;11947;50.810;4.394;2022-12-18T17:32:57;1.70;99.90
23540;DHT22;11947;50.810;4.394;2022-12-18T17:35:22;1.50;99.90
23540;DHT22;11947;50.810;4.394;2022-12-18T17:37:48;1.40;99.90
23540;DHT22;11947;50.810;4.394;2022-12-18T17:40:14;1.40;99.90
23540;DHT22;11947;50.810;4.394;2022-12-18T17:42:39;1.30;99.90
23540;DHT22;11947;50.810;4.394;2022-12-18T17:45:05;1.20;99.90
23540;DHT22;11947;50.810;4.394;2022-12-18T17:47:34;1.20;99.90
23540;DHT22;11947;50.810;4.394;2022-12-18T17:50:00;1.30;99.90
23540;DHT22;11947;50.810;4.394;2022-12-18T17:55:11;1.20;99.90
23540;DHT22;11947;50.810;4.394;2022-12-18T17:57:37;1.30;99.90
23540;DHT22;11947;50.810;4.394;2022-12-18T18:00:04;1.20;99.90
23540;DHT22;11947;50.810;4.394;2022-12-18T18:02:30;1.20;99.90
23540;DHT22;11947;50.810;4.394;2022-12-18T18:04:56;1.10;99.90
23540;DHT22;11947;50.810;4.394;2022-12-18T18:07:25;1.20;99.90
23540;DHT22;11947;50.810;4.394;2022-12-18T18:10:17;1.10;99.90
23540;DHT22;11947;50.810;4.394;2022-12-18T18:12:42;1.10;99.90
23540;DHT22;11947;50.810;4.394;2022-12-18T18:15:26;1.10;99.90
23540;DHT22;11947;50.810;4.394;2022-12-18T18:17:59;1.00;99.90
23540;DHT22;11947;50.810;4.394;2022-12-18T18:20:25;1.00;99.90
23540;DHT22;11947;50.810;4.394;2022-12-18T18:22:52;0.90;99.90
23540;DHT22;11947;50.810;4.394;2022-12-18T18:25:18;0.90;99.90
23540;DHT22;11947;50.810;4.394;2022-12-18T18:27:44;0.90;99.90
23540;DHT22;11947;50.810;4.394;2022-12-18T18:30:15;0.90;99.90
23540;DHT22;11947;50.810;4.394;2022-12-18T18:32:41;1.00;99.90
23540;DHT22;11947;50.810;4.394;2022-12-18T18:35:07;0.90;99.90
23540;DHT22;11947;50.810;4.394;2022-12-18T18:37:33;0.90;99.90
23540;DHT22;11947;50.810;4.394;2022-12-18T18:40:00;0.90;99.90
23540;DHT22;11947;50.810;4.394;2022-12-18T18:42:27;1.00;99.90
23540;DHT22;11947;50.810;4.394;2022-12-18T18:44:52;1.00;99.90